sensor_id;sensor_type;location;lat;lon;timestamp;P1;durP1;ratioP1;P2;durP2;ratioP2
12141;SDS011;6134;59.284;18.022;2023-06-22T00:01:40;6.35;;;5.85;;
12141;SDS011;6134;59.284;18.022;2023-06-22T00:04:09;6.68;;;6.05;;
12141;SDS011;6134;59.284;18.022;2023-06-22T00:06:37;6.72;;;6.13;;
12141;SDS011;6134;59.284;18.022;2023-06-22T00:09:07;6.60;;;6.10;;
12141;SDS011;6134;59.284;18.022;2023-06-22T00:11:37;6.80;;;6.15;;
12141;SDS011;6134;59.284;18.022;2023-06-22T00:14:06;7.40;;;6.10;;
12141;SDS011;6134;59.284;18.022;2023-06-22T00:16:34;6.47;;;5.93;;
12141;SDS011;6134;59.284;18.022;2023-06-22T00:19:04;6.57;;;6.00;;
12141;SDS011;6134;59.284;18.022;2023-06-22T00:21:33;6.78;;;6.18;;
12141;SDS011;6134;59.284;18.022;2023-06-22T00:24:02;6.18;;;5.68;;
12141;SDS011;6134;59.284;18.022;2023-06-22T00:26:32;6.88;;;6.32;;
12141;SDS011;6134;59.284;18.022;2023-06-22T00:29:01;6.80;;;6.20;;
12141;SDS011;6134;59.284;18.022;2023-06-22T00:31:30;7.57;;;6.50;;
12141;SDS011;6134;59.284;18.022;2023-06-22T00:33:59;6.90;;;6.30;;
12141;SDS011;6134;59.284;18.022;2023-06-22T00:36:28;7.00;;;6.40;;
12141;SDS011;6134;59.284;18.022;2023-06-22T00:38:57;7.07;;;6.45;;
12141;SDS011;6134;59.284;18.022;2023-06-22T00:41:27;7.07;;;6.50;;
12141;SDS011;6134;59.284;18.022;2023-06-22T00:43:58;6.68;;;6.07;;
12141;SDS011;6134;59.284;18.022;2023-06-22T00:46:27;6.85;;;6.35;;
12141;SDS011;6134;59.284;18.022;2023-06-22T00:48:55;7.65;;;6.95;;
12141;SDS011;6134;59.284;18.022;2023-06-22T00:51:27;7.45;;;6.57;;
12141;SDS011;6134;59.284;18.022;2023-06-22T00:53:56;7.18;;;6.57;;
12141;SDS011;6134;59.284;18.022;2023-06-22T00:56:25;7.45;;;6.75;;
12141;SDS011;6134;59.284;18.022;2023-06-22T00:58:57;7.68;;;6.97;;
12141;SDS011;6134;59.284;18.022;2023-06-22T01:01:27;7.57;;;6.88;;
12141;SDS011;6134;59.284;18.022;2023-06-22T01:03:56;7.57;;;6.88;;
12141;SDS011;6134;59.284;18.022;2023-06-22T01:06:26;7.65;;;6.95;;
12141;SDS011;6134;59.284;18.022;2023-06-22T01:09:06;7.25;;;6.63;;
12141;SDS011;6134;59.284;18.022;2023-06-22T01:11:39;7.72;;;7.05;;
12141;SDS011;6134;59.284;18.022;2023-06-22T01:14:14;7.88;;;7.13;;
12141;SDS011;6134;59.284;18.022;2023-06-22T01:16:44;7.75;;;7.03;;
12141;SDS011;6134;59.284;18.022;2023-06-22T01:19:18;9.48;;;7.00;;
12141;SDS011;6134;59.284;18.022;2023-06-22T01:21:49;8.30;;;7.38;;
12141;SDS011;6134;59.284;18.022;2023-06-22T01:24:21;8.07;;;7.28;;
12141;SDS011;6134;59.284;18.022;2023-06-22T01:26:54;8.25;;;7.45;;
12141;SDS011;6134;59.284;18.022;2023-06-22T01:29:27;10.82;;;7.63;;
12141;SDS011;6134;59.284;18.022;2023-06-22T01:31:56;8.20;;;7.45;;
12141;SDS011;6134;59.284;18.022;2023-06-22T01:34:27;8.68;;;7.88;;
12141;SDS011;6134;59.284;18.022;2023-06-22T01:36:57;8.63;;;7.88;;
12141;SDS011;6134;59.284;18.022;2023-06-22T01:39:28;8.93;;;8.13;;
12141;SDS011;6134;59.284;18.022;2023-06-22T01:41:58;9.30;;;8.50;;
12141;SDS011;6134;59.284;18.022;2023-06-22T01:44:29;9.10;;;8.20;;
12141;SDS011;6134;59.284;18.022;2023-06-22T01:46:58;9.85;;;8.90;;
12141;SDS011;6134;59.284;18.022;2023-06-22T01:49:27;8.80;;;8.10;;
12141;SDS011;6134;59.284;18.022;2023-06-22T01:51:56;9.20;;;8.45;;
12141;SDS011;6134;59.284;18.022;2023-06-22T01:54:27;9.35;;;8.55;;
12141;SDS011;6134;59.284;18.022;2023-06-22T01:56:56;8.82;;;8.02;;
12141;SDS011;6134;59.284;18.022;2023-06-22T01:59:25;9.35;;;8.50;;
12141;SDS011;6134;59.284;18.022;2023-06-22T02:01:59;10.25;;;9.25;;
12141;SDS011;6134;59.284;18.022;2023-06-22T02:04:31;10.40;;;8.45;;
12141;SDS011;6134;59.284;18.022;2023-06-22T02:07:03;9.20;;;8.38;;
12141;SDS011;6134;59.284;18.022;2023-06-22T02:09:34;10.25;;;9.35;;
12141;SDS011;6134;59.284;18.022;2023-06-22T02:12:04;10.02;;;9.13;;
12141;SDS011;6134;59.284;18.022;2023-06-22T02:14:34;9.98;;;9.07;;
12141;SDS011;6134;59.284;18.022;2023-06-22T02:17:05;9.55;;;8.60;;
12141;SDS011;6134;59.284;18.022;2023-06-22T02:19:35;10.07;;;9.07;;
12141;SDS011;6134;59.284;18.022;2023-06-22T02:22:05;9.80;;;9.00;;
12141;SDS011;6134;59.284;18.022;2023-06-22T02:24:34;10.52;;;8.98;;
12141;SDS011;6134;59.284;18.022;2023-06-22T02:27:03;9.60;;;8.80;;
12141;SDS011;6134;59.284;18.022;2023-06-22T02:29:33;9.32;;;8.52;;
12141;SDS011;6134;59.284;18.022;2023-06-22T02:32:02;9.57;;;8.55;;
12141;SDS011;6134;59.284;18.022;2023-06-22T02:34:33;8.95;;;8.18;;
12141;SDS011;6134;59.284;18.022;2023-06-22T02:37:03;9.82;;;8.00;;
12141;SDS011;6134;59.284;18.022;2023-06-22T02:39:32;9.65;;;8.88;;
12141;SDS011;6134;59.284;18.022;2023-06-22T02:42:01;8.85;;;8.07;;
12141;SDS011;6134;59.284;18.022;2023-06-22T02:44:30;9.18;;;8.48;;
12141;SDS011;6134;59.284;18.022;2023-06-22T02:46:59;8.60;;;7.80;;
12141;SDS011;6134;59.284;18.022;2023-06-22T02:49:27;9.23;;;8.43;;
12141;SDS011;6134;59.284;18.022;2023-06-22T02:51:58;8.90;;;8.10;;
12141;SDS011;6134;59.284;18.022;2023-06-22T02:54:27;9.70;;;8.70;;
12141;SDS011;6134;59.284;18.022;2023-06-22T02:56:56;8.80;;;8.00;;
12141;SDS011;6134;59.284;18.022;2023-06-22T02:59:25;9.85;;;8.95;;
12141;SDS011;6134;59.284;18.022;2023-06-22T03:02:00;9.73;;;8.93;;
12141;SDS011;6134;59.284;18.022;2023-06-22T03:04:31;9.57;;;8.77;;
12141;SDS011;6134;59.284;18.022;2023-06-22T03:07:01;9.55;;;8.70;;
12141;SDS011;6134;59.284;18.022;2023-06-22T03:09:32;9.95;;;9.05;;
12141;SDS011;6134;59.284;18.022;2023-06-22T03:12:02;9.38;;;8.68;;
12141;SDS011;6134;59.284;18.022;2023-06-22T03:14:41;9.18;;;8.38;;
12141;SDS011;6134;59.284;18.022;2023-06-22T03:17:10;9.75;;;8.95;;
12141;SDS011;6134;59.284;18.022;2023-06-22T03:19:40;9.57;;;8.77;;
12141;SDS011;6134;59.284;18.022;2023-06-22T03:22:10;9.82;;;8.93;;
12141;SDS011;6134;59.284;18.022;2023-06-22T03:24:41;9.82;;;9.02;;
12141;SDS011;6134;59.284;18.022;2023-06-22T03:27:10;10.45;;;9.45;;
12141;SDS011;6134;59.284;18.022;2023-06-22T03:29:39;9.63;;;8.82;;
12141;SDS011;6134;59.284;18.022;2023-06-22T03:32:08;9.40;;;8.60;;
12141;SDS011;6134;59.284;18.022;2023-06-22T03:34:37;9.77;;;8.93;;
12141;SDS011;6134;59.284;18.022;2023-06-22T03:37:06;10.00;;;9.10;;
12141;SDS011;6134;59.284;18.022;2023-06-22T03:39:36;9.38;;;8.57;;
12141;SDS011;6134;59.284;18.022;2023-06-22T03:42:05;9.90;;;8.90;;
12141;SDS011;6134;59.284;18.022;2023-06-22T03:44:34;10.02;;;9.23;;
12141;SDS011;6134;59.284;18.022;2023-06-22T03:47:05;9.73;;;8.90;;
12141;SDS011;6134;59.284;18.022;2023-06-22T03:49:35;9.43;;;8.55;;
12141;SDS011;6134;59.284;18.022;2023-06-22T03:52:04;9.30;;;8.50;;
12141;SDS011;6134;59.284;18.022;2023-06-22T03:54:33;9.20;;;8.30;;
12141;SDS011;6134;59.284;18.022;2023-06-22T03:57:04;9.50;;;8.70;;
12141;SDS011;6134;59.284;18.022;2023-06-22T03:59:33;9.35;;;8.65;;
12141;SDS011;6134;59.284;18.022;2023-06-22T04:02:02;9.95;;;8.98;;
12141;SDS011;6134;59.284;18.022;2023-06-22T04:04:31;10.75;;;9.15;;
12141;SDS011;6134;59.284;18.022;2023-06-22T04:07:00;10.25;;;9.38;;
12141;SDS011;6134;59.284;18.022;2023-06-22T04:09:29;9.55;;;8.65;;
12141;SDS011;6134;59.284;18.022;2023-06-22T04:11:58;9.77;;;8.70;;
12141;SDS011;6134;59.284;18.022;2023-06-22T04:14:29;9.25;;;8.45;;
12141;SDS011;6134;59.284;18.022;2023-06-22T04:16:58;10.55;;;8.35;;
12141;SDS011;6134;59.284;18.022;2023-06-22T04:19:27;8.63;;;7.93;;
12141;SDS011;6134;59.284;18.022;2023-06-22T04:21:57;9.02;;;8.13;;
12141;SDS011;6134;59.284;18.022;2023-06-22T04:24:26;8.85;;;8.05;;
12141;SDS011;6134;59.284;18.022;2023-06-22T04:26:56;9.00;;;8.20;;
12141;SDS011;6134;59.284;18.022;2023-06-22T04:29:30;8.90;;;8.00;;
12141;SDS011;6134;59.284;18.022;2023-06-22T04:31:59;8.25;;;7.43;;
12141;SDS011;6134;59.284;18.022;2023-06-22T04:34:33;8.52;;;7.65;;
12141;SDS011;6134;59.284;18.022;2023-06-22T04:37:02;8.27;;;7.57;;
12141;SDS011;6134;59.284;18.022;2023-06-22T04:39:31;7.65;;;7.05;;
12141;SDS011;6134;59.284;18.022;2023-06-22T04:42:00;7.63;;;6.85;;
12141;SDS011;6134;59.284;18.022;2023-06-22T04:44:31;7.38;;;6.68;;
12141;SDS011;6134;59.284;18.022;2023-06-22T04:47:02;7.43;;;6.65;;
12141;SDS011;6134;59.284;18.022;2023-06-22T04:49:35;7.75;;;7.15;;
12141;SDS011;6134;59.284;18.022;2023-06-22T04:52:07;7.65;;;7.05;;
12141;SDS011;6134;59.284;18.022;2023-06-22T04:54:37;7.50;;;6.80;;
12141;SDS011;6134;59.284;18.022;2023-06-22T04:57:14;7.18;;;6.53;;
12141;SDS011;6134;59.284;18.022;2023-06-22T04:59:45;7.13;;;6.47;;
12141;SDS011;6134;59.284;18.022;2023-06-22T05:02:14;7.72;;;7.05;;
12141;SDS011;6134;59.284;18.022;2023-06-22T05:04:43;9.02;;;7.13;;
12141;SDS011;6134;59.284;18.022;2023-06-22T05:07:12;7.07;;;6.47;;
12141;SDS011;6134;59.284;18.022;2023-06-22T05:09:41;7.05;;;6.35;;
12141;SDS011;6134;59.284;18.022;2023-06-22T05:12:10;7.22;;;6.63;;
12141;SDS011;6134;59.284;18.022;2023-06-22T05:14:39;7.18;;;6.40;;
12141;SDS011;6134;59.284;18.022;2023-06-22T05:17:09;7.10;;;6.50;;
12141;SDS011;6134;59.284;18.022;2023-06-22T05:19:42;7.07;;;6.45;;
12141;SDS011;6134;59.284;18.022;2023-06-22T05:22:11;7.13;;;6.45;;
12141;SDS011;6134;59.284;18.022;2023-06-22T05:24:41;7.60;;;6.90;;
12141;SDS011;6134;59.284;18.022;2023-06-22T05:27:10;6.85;;;6.35;;
12141;SDS011;6134;59.284;18.022;2023-06-22T05:29:39;8.32;;;7.38;;
12141;SDS011;6134;59.284;18.022;2023-06-22T05:32:10;6.90;;;6.30;;
12141;SDS011;6134;59.284;18.022;2023-06-22T05:34:39;6.70;;;6.20;;
12141;SDS011;6134;59.284;18.022;2023-06-22T05:37:08;7.25;;;5.95;;
12141;SDS011;6134;59.284;18.022;2023-06-22T05:39:37;6.97;;;6.32;;
12141;SDS011;6134;59.284;18.022;2023-06-22T05:42:06;7.10;;;6.50;;
12141;SDS011;6134;59.284;18.022;2023-06-22T05:44:36;7.18;;;6.57;;
12141;SDS011;6134;59.284;18.022;2023-06-22T05:47:07;7.88;;;7.10;;
12141;SDS011;6134;59.284;18.022;2023-06-22T05:49:38;7.25;;;6.53;;
12141;SDS011;6134;59.284;18.022;2023-06-22T05:52:07;7.95;;;7.22;;
12141;SDS011;6134;59.284;18.022;2023-06-22T05:54:36;7.32;;;6.63;;
12141;SDS011;6134;59.284;18.022;2023-06-22T05:57:05;7.07;;;6.45;;
12141;SDS011;6134;59.284;18.022;2023-06-22T05:59:34;7.32;;;6.60;;
12141;SDS011;6134;59.284;18.022;2023-06-22T06:02:03;6.50;;;5.90;;
12141;SDS011;6134;59.284;18.022;2023-06-22T06:04:33;7.20;;;5.95;;
12141;SDS011;6134;59.284;18.022;2023-06-22T06:07:03;7.22;;;6.53;;
12141;SDS011;6134;59.284;18.022;2023-06-22T06:09:32;6.97;;;6.38;;
12141;SDS011;6134;59.284;18.022;2023-06-22T06:12:01;6.88;;;6.25;;
12141;SDS011;6134;59.284;18.022;2023-06-22T06:14:30;6.28;;;5.68;;
12141;SDS011;6134;59.284;18.022;2023-06-22T06:16:59;6.93;;;5.57;;
12141;SDS011;6134;59.284;18.022;2023-06-22T06:19:28;6.28;;;5.38;;
12141;SDS011;6134;59.284;18.022;2023-06-22T06:21:57;5.95;;;5.45;;
12141;SDS011;6134;59.284;18.022;2023-06-22T06:24:27;6.03;;;4.78;;
12141;SDS011;6134;59.284;18.022;2023-06-22T06:26:55;5.70;;;4.78;;
12141;SDS011;6134;59.284;18.022;2023-06-22T06:29:24;5.22;;;4.72;;
12141;SDS011;6134;59.284;18.022;2023-06-22T06:31:53;6.28;;;4.57;;
12141;SDS011;6134;59.284;18.022;2023-06-22T06:34:23;5.55;;;4.75;;
12141;SDS011;6134;59.284;18.022;2023-06-22T06:36:52;6.75;;;4.95;;
12141;SDS011;6134;59.284;18.022;2023-06-22T06:39:21;5.03;;;4.63;;
12141;SDS011;6134;59.284;18.022;2023-06-22T06:41:51;5.25;;;4.75;;
12141;SDS011;6134;59.284;18.022;2023-06-22T06:44:20;5.55;;;4.43;;
12141;SDS011;6134;59.284;18.022;2023-06-22T06:46:49;6.43;;;4.70;;
12141;SDS011;6134;59.284;18.022;2023-06-22T06:49:17;6.45;;;4.28;;
12141;SDS011;6134;59.284;18.022;2023-06-22T06:51:46;4.82;;;4.25;;
12141;SDS011;6134;59.284;18.022;2023-06-22T06:54:15;4.97;;;4.45;;
12141;SDS011;6134;59.284;18.022;2023-06-22T06:56:47;4.50;;;4.20;;
12141;SDS011;6134;59.284;18.022;2023-06-22T06:59:18;8.27;;;4.28;;
12141;SDS011;6134;59.284;18.022;2023-06-22T07:01:47;6.45;;;4.35;;
12141;SDS011;6134;59.284;18.022;2023-06-22T07:04:16;5.80;;;4.90;;
12141;SDS011;6134;59.284;18.022;2023-06-22T07:06:45;5.55;;;4.20;;
12141;SDS011;6134;59.284;18.022;2023-06-22T07:09:13;5.90;;;4.30;;
12141;SDS011;6134;59.284;18.022;2023-06-22T07:11:42;6.20;;;3.97;;
12141;SDS011;6134;59.284;18.022;2023-06-22T07:14:11;5.25;;;4.20;;
12141;SDS011;6134;59.284;18.022;2023-06-22T07:16:41;4.50;;;4.07;;
12141;SDS011;6134;59.284;18.022;2023-06-22T07:19:11;7.03;;;4.43;;
12141;SDS011;6134;59.284;18.022;2023-06-22T07:21:39;9.63;;;4.10;;
12141;SDS011;6134;59.284;18.022;2023-06-22T07:24:08;7.10;;;4.72;;
12141;SDS011;6134;59.284;18.022;2023-06-22T07:26:37;4.82;;;4.28;;
12141;SDS011;6134;59.284;18.022;2023-06-22T07:29:06;6.05;;;4.10;;
12141;SDS011;6134;59.284;18.022;2023-06-22T07:31:35;5.82;;;4.47;;
12141;SDS011;6134;59.284;18.022;2023-06-22T07:34:05;4.30;;;3.92;;
12141;SDS011;6134;59.284;18.022;2023-06-22T07:36:34;5.78;;;4.63;;
12141;SDS011;6134;59.284;18.022;2023-06-22T07:39:03;6.43;;;4.30;;
12141;SDS011;6134;59.284;18.022;2023-06-22T07:41:33;4.38;;;3.80;;
12141;SDS011;6134;59.284;18.022;2023-06-22T07:44:02;5.55;;;4.38;;
12141;SDS011;6134;59.284;18.022;2023-06-22T07:46:31;6.20;;;4.15;;
12141;SDS011;6134;59.284;18.022;2023-06-22T07:49:00;4.63;;;3.97;;
12141;SDS011;6134;59.284;18.022;2023-06-22T07:51:30;4.28;;;3.88;;
12141;SDS011;6134;59.284;18.022;2023-06-22T07:53:59;5.68;;;4.30;;
12141;SDS011;6134;59.284;18.022;2023-06-22T07:56:28;4.60;;;3.83;;
12141;SDS011;6134;59.284;18.022;2023-06-22T07:58:57;5.35;;;3.92;;
12141;SDS011;6134;59.284;18.022;2023-06-22T08:01:27;4.43;;;4.03;;
12141;SDS011;6134;59.284;18.022;2023-06-22T08:03:56;5.68;;;4.22;;
12141;SDS011;6134;59.284;18.022;2023-06-22T08:06:25;6.25;;;3.88;;
12141;SDS011;6134;59.284;18.022;2023-06-22T08:08:55;5.22;;;4.50;;
12141;SDS011;6134;59.284;18.022;2023-06-22T08:11:25;4.57;;;4.10;;
12141;SDS011;6134;59.284;18.022;2023-06-22T08:13:54;4.90;;;3.83;;
12141;SDS011;6134;59.284;18.022;2023-06-22T08:16:25;4.20;;;3.78;;
12141;SDS011;6134;59.284;18.022;2023-06-22T08:18:54;5.43;;;4.07;;
12141;SDS011;6134;59.284;18.022;2023-06-22T08:21:23;5.18;;;4.00;;
12141;SDS011;6134;59.284;18.022;2023-06-22T08:23:52;4.97;;;4.28;;
12141;SDS011;6134;59.284;18.022;2023-06-22T08:26:22;6.07;;;4.55;;
12141;SDS011;6134;59.284;18.022;2023-06-22T08:28:51;5.05;;;3.60;;
12141;SDS011;6134;59.284;18.022;2023-06-22T08:31:20;4.30;;;3.90;;
12141;SDS011;6134;59.284;18.022;2023-06-22T08:33:49;4.85;;;3.40;;
12141;SDS011;6134;59.284;18.022;2023-06-22T08:36:18;4.57;;;3.80;;
12141;SDS011;6134;59.284;18.022;2023-06-22T08:38:47;9.35;;;4.30;;
12141;SDS011;6134;59.284;18.022;2023-06-22T08:41:18;3.97;;;3.58;;
12141;SDS011;6134;59.284;18.022;2023-06-22T08:43:48;5.25;;;3.90;;
12141;SDS011;6134;59.284;18.022;2023-06-22T08:46:17;4.97;;;4.07;;
12141;SDS011;6134;59.284;18.022;2023-06-22T08:48:49;6.05;;;3.95;;
12141;SDS011;6134;59.284;18.022;2023-06-22T08:51:18;5.15;;;3.65;;
12141;SDS011;6134;59.284;18.022;2023-06-22T08:53:46;4.53;;;3.70;;
12141;SDS011;6134;59.284;18.022;2023-06-22T08:56:15;4.05;;;3.63;;
12141;SDS011;6134;59.284;18.022;2023-06-22T08:58:44;5.35;;;4.15;;
12141;SDS011;6134;59.284;18.022;2023-06-22T09:01:14;5.45;;;3.85;;
12141;SDS011;6134;59.284;18.022;2023-06-22T09:03:44;5.93;;;3.80;;
12141;SDS011;6134;59.284;18.022;2023-06-22T09:06:21;4.22;;;3.50;;
12141;SDS011;6134;59.284;18.022;2023-06-22T09:08:50;5.15;;;3.30;;
12141;SDS011;6134;59.284;18.022;2023-06-22T09:11:19;3.60;;;3.30;;
12141;SDS011;6134;59.284;18.022;2023-06-22T09:13:47;4.32;;;3.55;;
12141;SDS011;6134;59.284;18.022;2023-06-22T09:16:18;5.85;;;3.53;;
12141;SDS011;6134;59.284;18.022;2023-06-22T09:18:47;3.65;;;3.15;;
12141;SDS011;6134;59.284;18.022;2023-06-22T09:21:16;4.55;;;3.40;;
12141;SDS011;6134;59.284;18.022;2023-06-22T09:23:45;3.92;;;3.30;;
12141;SDS011;6134;59.284;18.022;2023-06-22T09:26:18;4.43;;;3.85;;
12141;SDS011;6134;59.284;18.022;2023-06-22T09:28:47;3.75;;;3.38;;
12141;SDS011;6134;59.284;18.022;2023-06-22T09:31:15;6.50;;;3.38;;
12141;SDS011;6134;59.284;18.022;2023-06-22T09:33:53;3.85;;;3.50;;
12141;SDS011;6134;59.284;18.022;2023-06-22T09:36:22;3.45;;;3.15;;
12141;SDS011;6134;59.284;18.022;2023-06-22T09:38:51;3.97;;;3.53;;
12141;SDS011;6134;59.284;18.022;2023-06-22T09:41:22;5.78;;;3.45;;
12141;SDS011;6134;59.284;18.022;2023-06-22T09:43:51;7.22;;;3.80;;
12141;SDS011;6134;59.284;18.022;2023-06-22T09:46:22;4.38;;;3.67;;
12141;SDS011;6134;59.284;18.022;2023-06-22T09:48:53;4.13;;;3.72;;
12141;SDS011;6134;59.284;18.022;2023-06-22T09:51:23;5.47;;;3.90;;
12141;SDS011;6134;59.284;18.022;2023-06-22T09:53:52;4.35;;;3.30;;
12141;SDS011;6134;59.284;18.022;2023-06-22T09:56:21;5.95;;;2.78;;
12141;SDS011;6134;59.284;18.022;2023-06-22T09:58:52;4.20;;;3.80;;
12141;SDS011;6134;59.284;18.022;2023-06-22T10:01:31;5.18;;;3.58;;
12141;SDS011;6134;59.284;18.022;2023-06-22T10:04:01;2.83;;;2.58;;
12141;SDS011;6134;59.284;18.022;2023-06-22T10:06:31;5.15;;;3.22;;
12141;SDS011;6134;59.284;18.022;2023-06-22T10:09:00;5.43;;;3.35;;
12141;SDS011;6134;59.284;18.022;2023-06-22T10:11:29;5.88;;;3.05;;
12141;SDS011;6134;59.284;18.022;2023-06-22T10:13:58;3.35;;;2.90;;
12141;SDS011;6134;59.284;18.022;2023-06-22T10:16:30;4.47;;;3.10;;
12141;SDS011;6134;59.284;18.022;2023-06-22T10:18:59;3.45;;;2.75;;
12141;SDS011;6134;59.284;18.022;2023-06-22T10:21:29;3.33;;;3.03;;
12141;SDS011;6134;59.284;18.022;2023-06-22T10:23:59;5.00;;;3.15;;
12141;SDS011;6134;59.284;18.022;2023-06-22T10:26:33;4.47;;;3.08;;
12141;SDS011;6134;59.284;18.022;2023-06-22T10:29:02;7.75;;;2.63;;
12141;SDS011;6134;59.284;18.022;2023-06-22T10:31:33;3.00;;;2.70;;
12141;SDS011;6134;59.284;18.022;2023-06-22T10:34:02;4.00;;;2.45;;
12141;SDS011;6134;59.284;18.022;2023-06-22T10:36:35;3.92;;;2.53;;
12141;SDS011;6134;59.284;18.022;2023-06-22T10:39:03;3.00;;;2.30;;
12141;SDS011;6134;59.284;18.022;2023-06-22T10:41:32;3.22;;;2.67;;
12141;SDS011;6134;59.284;18.022;2023-06-22T10:44:01;2.97;;;2.25;;
12141;SDS011;6134;59.284;18.022;2023-06-22T10:46:30;3.35;;;2.90;;
12141;SDS011;6134;59.284;18.022;2023-06-22T10:48:59;5.50;;;2.80;;
12141;SDS011;6134;59.284;18.022;2023-06-22T10:51:28;4.15;;;3.35;;
12141;SDS011;6134;59.284;18.022;2023-06-22T10:53:59;3.63;;;2.70;;
12141;SDS011;6134;59.284;18.022;2023-06-22T10:56:28;3.92;;;2.83;;
12141;SDS011;6134;59.284;18.022;2023-06-22T10:58:57;3.20;;;2.90;;
12141;SDS011;6134;59.284;18.022;2023-06-22T11:01:26;6.20;;;2.85;;
12141;SDS011;6134;59.284;18.022;2023-06-22T11:04:02;5.50;;;3.00;;
12141;SDS011;6134;59.284;18.022;2023-06-22T11:06:31;3.15;;;2.22;;
12141;SDS011;6134;59.284;18.022;2023-06-22T11:09:02;3.45;;;2.60;;
12141;SDS011;6134;59.284;18.022;2023-06-22T11:11:51;3.80;;;2.47;;
12141;SDS011;6134;59.284;18.022;2023-06-22T11:14:21;4.55;;;2.28;;
12141;SDS011;6134;59.284;18.022;2023-06-22T11:16:50;5.68;;;2.75;;
12141;SDS011;6134;59.284;18.022;2023-06-22T11:19:18;4.20;;;2.50;;
12141;SDS011;6134;59.284;18.022;2023-06-22T11:21:47;3.55;;;2.45;;
12141;SDS011;6134;59.284;18.022;2023-06-22T11:24:17;2.50;;;2.30;;
12141;SDS011;6134;59.284;18.022;2023-06-22T11:26:46;3.53;;;2.40;;
12141;SDS011;6134;59.284;18.022;2023-06-22T11:29:15;4.47;;;2.50;;
12141;SDS011;6134;59.284;18.022;2023-06-22T11:32:02;2.97;;;2.67;;
12141;SDS011;6134;59.284;18.022;2023-06-22T11:34:31;2.72;;;2.53;;
12141;SDS011;6134;59.284;18.022;2023-06-22T11:37:00;3.88;;;2.40;;
12141;SDS011;6134;59.284;18.022;2023-06-22T11:39:30;3.85;;;2.10;;
12141;SDS011;6134;59.284;18.022;2023-06-22T11:42:13;2.45;;;2.25;;
12141;SDS011;6134;59.284;18.022;2023-06-22T11:44:42;6.18;;;2.40;;
12141;SDS011;6134;59.284;18.022;2023-06-22T11:47:11;3.33;;;1.90;;
12141;SDS011;6134;59.284;18.022;2023-06-22T11:49:40;2.50;;;2.25;;
12141;SDS011;6134;59.284;18.022;2023-06-22T11:52:09;3.25;;;2.15;;
12141;SDS011;6134;59.284;18.022;2023-06-22T11:54:39;2.97;;;2.25;;
12141;SDS011;6134;59.284;18.022;2023-06-22T11:57:08;4.47;;;1.98;;
12141;SDS011;6134;59.284;18.022;2023-06-22T11:59:37;3.58;;;2.25;;
12141;SDS011;6134;59.284;18.022;2023-06-22T12:02:06;3.35;;;1.85;;
12141;SDS011;6134;59.284;18.022;2023-06-22T12:04:36;4.97;;;2.20;;
12141;SDS011;6134;59.284;18.022;2023-06-22T12:07:05;3.83;;;2.05;;
12141;SDS011;6134;59.284;18.022;2023-06-22T12:09:34;2.55;;;2.00;;
12141;SDS011;6134;59.284;18.022;2023-06-22T12:12:05;6.18;;;2.20;;
12141;SDS011;6134;59.284;18.022;2023-06-22T12:14:34;3.63;;;2.13;;
12141;SDS011;6134;59.284;18.022;2023-06-22T12:17:03;3.90;;;3.00;;
12141;SDS011;6134;59.284;18.022;2023-06-22T12:19:32;2.22;;;2.03;;
12141;SDS011;6134;59.284;18.022;2023-06-22T12:22:01;3.08;;;2.35;;
12141;SDS011;6134;59.284;18.022;2023-06-22T12:24:29;2.20;;;2.00;;
12141;SDS011;6134;59.284;18.022;2023-06-22T12:26:59;3.08;;;2.10;;
12141;SDS011;6134;59.284;18.022;2023-06-22T12:29:31;3.88;;;2.30;;
12141;SDS011;6134;59.284;18.022;2023-06-22T12:32:00;5.38;;;2.30;;
12141;SDS011;6134;59.284;18.022;2023-06-22T12:34:29;4.07;;;2.10;;
12141;SDS011;6134;59.284;18.022;2023-06-22T12:36:58;4.63;;;2.60;;
12141;SDS011;6134;59.284;18.022;2023-06-22T12:39:27;4.07;;;2.42;;
12141;SDS011;6134;59.284;18.022;2023-06-22T12:41:56;4.38;;;2.28;;
12141;SDS011;6134;59.284;18.022;2023-06-22T12:44:25;3.72;;;2.25;;
12141;SDS011;6134;59.284;18.022;2023-06-22T12:46:55;3.85;;;2.33;;
12141;SDS011;6134;59.284;18.022;2023-06-22T12:49:24;3.03;;;2.28;;
12141;SDS011;6134;59.284;18.022;2023-06-22T12:51:53;2.42;;;1.98;;
12141;SDS011;6134;59.284;18.022;2023-06-22T12:54:22;3.92;;;2.50;;
12141;SDS011;6134;59.284;18.022;2023-06-22T12:56:50;3.40;;;2.60;;
12141;SDS011;6134;59.284;18.022;2023-06-22T12:59:21;2.53;;;2.30;;
12141;SDS011;6134;59.284;18.022;2023-06-22T13:01:50;3.42;;;2.25;;
12141;SDS011;6134;59.284;18.022;2023-06-22T13:04:21;2.60;;;2.40;;
12141;SDS011;6134;59.284;18.022;2023-06-22T13:06:49;2.70;;;2.50;;
12141;SDS011;6134;59.284;18.022;2023-06-22T13:09:18;2.65;;;2.42;;
12141;SDS011;6134;59.284;18.022;2023-06-22T13:11:47;4.15;;;2.45;;
12141;SDS011;6134;59.284;18.022;2023-06-22T13:14:16;3.33;;;2.50;;
12141;SDS011;6134;59.284;18.022;2023-06-22T13:16:45;2.85;;;2.20;;
12141;SDS011;6134;59.284;18.022;2023-06-22T13:19:14;2.85;;;2.53;;
12141;SDS011;6134;59.284;18.022;2023-06-22T13:21:44;3.53;;;2.15;;
12141;SDS011;6134;59.284;18.022;2023-06-22T13:24:13;2.45;;;2.25;;
12141;SDS011;6134;59.284;18.022;2023-06-22T13:26:43;2.97;;;2.63;;
12141;SDS011;6134;59.284;18.022;2023-06-22T13:29:12;4.00;;;2.25;;
12141;SDS011;6134;59.284;18.022;2023-06-22T13:31:41;4.05;;;2.35;;
12141;SDS011;6134;59.284;18.022;2023-06-22T13:34:10;7.93;;;2.33;;
12141;SDS011;6134;59.284;18.022;2023-06-22T13:36:39;4.45;;;2.45;;
12141;SDS011;6134;59.284;18.022;2023-06-22T13:39:09;4.18;;;2.50;;
12141;SDS011;6134;59.284;18.022;2023-06-22T13:41:37;4.05;;;2.58;;
12141;SDS011;6134;59.284;18.022;2023-06-22T13:44:06;4.25;;;2.40;;
12141;SDS011;6134;59.284;18.022;2023-06-22T13:46:35;4.18;;;2.70;;
12141;SDS011;6134;59.284;18.022;2023-06-22T13:49:04;2.38;;;2.15;;
12141;SDS011;6134;59.284;18.022;2023-06-22T13:51:33;5.28;;;2.92;;
12141;SDS011;6134;59.284;18.022;2023-06-22T13:54:01;2.60;;;2.40;;
12141;SDS011;6134;59.284;18.022;2023-06-22T13:56:35;3.55;;;2.63;;
12141;SDS011;6134;59.284;18.022;2023-06-22T13:59:04;3.90;;;2.80;;
12141;SDS011;6134;59.284;18.022;2023-06-22T14:01:35;2.70;;;2.50;;
12141;SDS011;6134;59.284;18.022;2023-06-22T14:04:05;3.75;;;2.40;;
12141;SDS011;6134;59.284;18.022;2023-06-22T14:06:34;3.63;;;2.55;;
12141;SDS011;6134;59.284;18.022;2023-06-22T14:09:03;5.25;;;2.83;;
12141;SDS011;6134;59.284;18.022;2023-06-22T14:11:32;7.70;;;2.40;;
12141;SDS011;6134;59.284;18.022;2023-06-22T14:14:04;2.67;;;2.20;;
12141;SDS011;6134;59.284;18.022;2023-06-22T14:16:36;4.32;;;2.65;;
12141;SDS011;6134;59.284;18.022;2023-06-22T14:19:05;2.75;;;2.42;;
12141;SDS011;6134;59.284;18.022;2023-06-22T14:21:33;3.70;;;2.40;;
12141;SDS011;6134;59.284;18.022;2023-06-22T14:24:03;2.97;;;2.47;;
12141;SDS011;6134;59.284;18.022;2023-06-22T14:26:31;3.30;;;2.50;;
12141;SDS011;6134;59.284;18.022;2023-06-22T14:29:00;4.50;;;2.40;;
12141;SDS011;6134;59.284;18.022;2023-06-22T14:31:30;4.75;;;2.60;;
12141;SDS011;6134;59.284;18.022;2023-06-22T14:33:59;4.10;;;2.33;;
12141;SDS011;6134;59.284;18.022;2023-06-22T14:36:29;6.80;;;2.78;;
12141;SDS011;6134;59.284;18.022;2023-06-22T14:38:58;3.85;;;2.65;;
12141;SDS011;6134;59.284;18.022;2023-06-22T14:41:27;6.70;;;2.58;;
12141;SDS011;6134;59.284;18.022;2023-06-22T14:43:56;4.40;;;2.42;;
12141;SDS011;6134;59.284;18.022;2023-06-22T14:46:25;2.70;;;2.50;;
12141;SDS011;6134;59.284;18.022;2023-06-22T14:48:55;6.72;;;2.80;;
12141;SDS011;6134;59.284;18.022;2023-06-22T14:51:24;3.42;;;2.58;;
12141;SDS011;6134;59.284;18.022;2023-06-22T14:53:53;3.00;;;2.67;;
12141;SDS011;6134;59.284;18.022;2023-06-22T14:56:22;5.68;;;2.72;;
12141;SDS011;6134;59.284;18.022;2023-06-22T14:58:50;4.53;;;2.88;;
12141;SDS011;6134;59.284;18.022;2023-06-22T15:01:19;3.58;;;2.47;;
12141;SDS011;6134;59.284;18.022;2023-06-22T15:03:48;3.38;;;2.40;;